Terminal Aerodrome Forecast
Issued by NWS

Home | Current Version | Previous Version | Text Only | Print | Product List | Glossary On
Versions: 1 2 3 4 5 6 7 8 9 10 11 12
165
FTUS43 KICT 221139
TAFRSL
TAF
KRSL 221139Z 2212/2312 22008KT P6SM FEW120
     FM222000 15006KT P6SM SCT070
     FM222300 06010KT P6SM VCTS BKN070CB
     FM230600 06008KT P6SM SCT025 BKN120=

USA.gov is the U.S. government's official web portal to all federal, state and local government web resources and services.